LOWILSZR

Guest
Details From LOWI - Innsbruck Kranebitten
To LSZR - St.Gallen-Altenrhein
Flight Number -
Tags generated
Created
Modified
Stats Distance 74 nm / 137 km
Max Altitude 6,300 ft / 1,920 m
Waypoints 3
Social Downloads 3
Likes 0
Share VATSIM

Download

Looking for another format? Having issues loading an existing format? Contact us
Advertisement - Login to hide

Notes

Basic altitude profile: - Ascent Rate: 2500ft/min - Ascent Speed: 250kts - Cruise Altitude: 35000ft - Cruise Speed: 420kts - Descent Rate: 1500ft/min - Descent Speed: 250kts Options: - Use NATs: yes - Use PACOTS: yes - Use low airways: yes - Use high airways: yes

Route

LOWI NEBEL LSZR

ID Type Via Altitude Latitude Longitude Leg Dist Tot Dist Heading (true) Name
O LOWI APT - 0 ft / 0 m 47.26023˚ 11.34397˚ - 0 nm - Innsbruck Kranebitten
NEBEL FIX - 6,300 ft / 1,920 m 47.40389˚ 10.27444˚ 44 nm 44 nm 282° / 281° -
O LSZR APT - 0 ft / 0 m 47.48556˚ 9.56074˚ 29 nm 73 nm 280° / 279° St.Gallen-Altenrhein

Altitude Profile

Advertisement - Login to hide

LOWI

Details ICAO LOWI (INN)
Name Innsbruck Kranebitten
Region Austria
Timezone Europe/Vienna (UTC+1.0)
Stats Elevation 1,906 ft / 581 m (AMSL)
Location 47.260226° 11.343967°
Runways 1
Magnetic Variation 3.019° E

METAR

LOWI 160520Z 22002KT 9999 FEW010 BKN087 M01/M03 Q1005 R08/19//95 NOSIG

Decode

TAF

TAF LOWI 152315Z 1600/1624 27005KT 7000 FEW004 SCT012 BKN018 TX02/1613Z TNM02/1607Z PROB40 1524/1609 0800 FZFG VV003 BECMG 1609/1611 9999 FEW010 BKN100 BECMG 1615/1617 8000 -SN SCT030 BKN060 TEMPO 1616/1624 1200 SN VV008

Decode

Departure Runways

ID Width Length Bearing (true) Bearing (mag) Surface Threshold Offset Overrun Length
08 148 ft / 45 m 6,545 ft / 1,995 m 81.02° 78.00° Asphalt 338 ft / 103 m 0 ft / 0 m
26 148 ft / 45 m 6,545 ft / 1,995 m 261.04° 258.02° Asphalt 0 ft / 0 m 0 ft / 0 m

LSZR

Details ICAO LSZR (ACH)
Name St.Gallen-Altenrhein
Region Switzerland
Timezone Europe/Zurich (UTC+1.0)
Stats Elevation 1,306 ft / 398 m (AMSL)
Location 47.485559° 9.560741°
Runways 2
Magnetic Variation 2.597° E

METAR

LSZR 160520Z AUTO 10003KT 9999 SCT027 BKN040 01/M00 Q1005

Decode

TAF

Not found

Destination Runways

ID Width Length Bearing (true) Bearing (mag) Surface Threshold Offset Overrun Length
10 98 ft / 30 m 4,909 ft / 1,496 m 98.79° 96.19° Asphalt 328 ft / 100 m 0 ft / 0 m
10L 75 ft / 23 m 1,970 ft / 601 m 98.80° 96.20° Grass 0 ft / 0 m 0 ft / 0 m
28 98 ft / 30 m 4,909 ft / 1,496 m 278.81° 276.21° Asphalt 246 ft / 75 m 0 ft / 0 m
28R 75 ft / 23 m 1,970 ft / 601 m 278.80° 276.20° Grass 0 ft / 0 m 0 ft / 0 m

Approach Navaids

Runway Type Ident Frequency Range Bearing (true) Bearing (mag) Slope Elevation
10 Localiser IAL 108.75 MHz 18 nm / 33 km 99.82° 97.22° - 1,306 ft / 398 m (AMSL)
10 Glidescope IAL 108.75 MHz 10 nm / 19 km 98.80° 96.20° 4.00° 1,333 ft / 406 m (AMSL)
10 DME IAL 108.75 MHz 18 nm / 33 km - - - 1,333 ft / 406 m (AMSL)

Popular Alternatives